23°C Temp
'.PHP_EOL;
17°C Dewpoint
69% Humidity
Temperature
5 KM/H
3 MPH
3 KTS
120°
East South
East

Wind
Clear
Pressure 1017.95 (hPa)- 30.06 (in)
Visibility 10 (mi) - 16.1 (km)

Current Conditions
KTUL
Location 18(mi)
Metar:
KTUL 280453Z 12003KT 10SM CLR 23/17 A3006 RMK AO2 SLP172 T02280167
Tue 28th May 04:53 am

Airport
  Metar Aviation API Data Provided by https://www.checkwx.com/ Icons created by weather34.com